createdAt,value
2018-09-27T00:02:07.128Z,96.01
2018-09-27T00:04:34.118Z,96.85
2018-09-27T00:07:01.099Z,97.14
2018-09-27T00:09:28.083Z,96.52
2018-09-27T00:11:55.107Z,96.56
2018-09-27T00:14:22.114Z,97.21
2018-09-27T00:16:49.097Z,97.05
2018-09-27T00:19:16.077Z,96.80
2018-09-27T00:21:43.435Z,96.90
2018-09-27T00:24:10.407Z,97.16
2018-09-27T00:26:37.380Z,97.20
2018-09-27T00:29:04.363Z,96.91
2018-09-27T00:31:31.935Z,96.19
2018-09-27T00:33:58.918Z,96.83
2018-09-27T00:36:25.909Z,95.76
2018-09-27T00:38:52.919Z,96.39
2018-09-27T00:41:19.916Z,95.95
2018-09-27T00:43:46.891Z,95.68
2018-09-27T00:46:13.864Z,95.55
2018-09-27T00:48:40.891Z,95.55
2018-09-27T00:51:07.883Z,94.76
2018-09-27T00:53:34.867Z,94.93
2018-09-27T00:56:01.864Z,94.38
2018-09-27T00:58:28.844Z,94.05
2018-09-27T01:00:55.888Z,94.46
2018-09-27T01:03:23.135Z,94.12
2018-09-27T01:05:50.117Z,93.49
2018-09-27T01:08:17.114Z,93.95
2018-09-27T01:10:44.351Z,93.87
2018-09-27T01:13:11.413Z,93.10
2018-09-27T01:15:38.463Z,93.04
2018-09-27T01:18:05.739Z,92.65
2018-09-27T01:20:32.706Z,92.44
2018-09-27T01:22:59.764Z,93.17
2018-09-27T01:25:27.191Z,92.88
2018-09-27T01:27:54.259Z,92.01
2018-09-27T01:30:21.257Z,92.49
2018-09-27T01:32:48.732Z,92.02
2018-09-27T01:35:15.695Z,92.28
2018-09-27T01:37:42.666Z,92.93
2018-09-27T01:40:09.733Z,92.98
2018-09-27T01:42:36.795Z,92.61
2018-09-27T01:45:04.187Z,92.84
2018-09-27T01:47:31.245Z,92.35
2018-09-27T01:49:58.203Z,92.58
2018-09-27T01:52:25.369Z,92.87
2018-09-27T01:54:52.351Z,93.18
2018-09-27T01:57:19.410Z,92.95
2018-09-27T01:59:46.400Z,93.53
2018-09-27T02:02:13.553Z,93.04
2018-09-27T02:04:40.623Z,93.46
2018-09-27T02:07:07.608Z,93.33
2018-09-27T02:09:34.946Z,93.36
2018-09-27T02:12:02.091Z,93.34
2018-09-27T02:14:29.328Z,93.34
2018-09-27T02:16:56.316Z,92.81
2018-09-27T02:19:23.563Z,93.95
2018-09-27T02:21:50.616Z,93.73
2018-09-27T02:24:18.049Z,93.45
2018-09-27T02:26:45.188Z,93.89
2018-09-27T02:29:12.175Z,93.47
2018-09-27T02:31:39.180Z,93.95
2018-09-27T02:34:06.179Z,94.23
2018-09-27T02:36:33.232Z,94.73
2018-09-27T02:39:00.668Z,94.29
2018-09-27T02:41:27.640Z,94.45
2018-09-27T02:43:54.651Z,95.01
2018-09-27T02:46:21.988Z,94.92
2018-09-27T02:48:48.968Z,94.90
2018-09-27T02:51:15.971Z,95.21
2018-09-27T02:53:43.067Z,95.23
2018-09-27T02:56:10.039Z,95.68
2018-09-27T02:58:37.031Z,95.48
2018-09-27T03:01:04.344Z,95.61
2018-09-27T03:03:31.488Z,96.02
2018-09-27T03:05:58.468Z,96.22
2018-09-27T03:08:25.539Z,95.98
2018-09-27T03:10:52.780Z,96.25
2018-09-27T03:13:20.326Z,96.34
2018-09-27T03:15:47.308Z,96.40
2018-09-27T03:18:14.534Z,96.74
2018-09-27T03:20:41.631Z,97.23
2018-09-27T03:23:08.775Z,97.24
2018-09-27T03:25:36.063Z,97.14
2018-09-27T03:28:03.136Z,97.42
2018-09-27T03:30:30.197Z,97.77
2018-09-27T03:32:57.178Z,97.24
2018-09-27T03:35:24.357Z,98.03
2018-09-27T03:37:51.420Z,97.80
2018-09-27T03:40:18.568Z,98.11
2018-09-27T03:42:45.504Z,98.44
2018-09-27T03:45:12.591Z,98.35
2018-09-27T03:47:39.816Z,98.86
2018-09-27T03:50:06.823Z,99.47
2018-09-27T03:52:33.796Z,98.90
2018-09-27T03:55:00.789Z,98.71
2018-09-27T03:57:27.759Z,99.49
2018-09-27T03:59:55.027Z,100.00
2018-09-27T04:02:22.092Z,99.76
2018-09-27T04:04:49.063Z,100.00
2018-09-27T04:07:16.381Z,100.00
2018-09-27T04:09:43.372Z,100.00
2018-09-27T04:12:10.459Z,100.00
2018-09-27T04:14:37.726Z,100.00
2018-09-27T04:17:04.809Z,100.00
2018-09-27T04:19:31.816Z,100.00
2018-09-27T04:21:58.900Z,100.00
2018-09-27T04:24:25.876Z,100.00
2018-09-27T04:26:52.871Z,100.00
2018-09-27T04:29:19.947Z,100.00
2018-09-27T04:31:46.923Z,100.00
2018-09-27T04:34:13.928Z,100.00
2018-09-27T04:36:41.001Z,100.00
2018-09-27T04:39:09.317Z,100.00
2018-09-27T04:41:36.568Z,100.00
2018-09-27T04:44:03.819Z,100.00
2018-09-27T04:46:30.841Z,100.00
2018-09-27T04:48:58.228Z,100.00
2018-09-27T04:51:25.196Z,100.00
2018-09-27T04:53:52.291Z,100.00
2018-09-27T04:56:19.376Z,100.00
2018-09-27T04:58:46.357Z,100.00
2018-09-27T05:01:13.339Z,100.00
2018-09-27T05:03:40.616Z,100.00
2018-09-27T05:06:07.718Z,100.00
2018-09-27T05:08:34.860Z,100.00
2018-09-27T05:11:02.165Z,100.00
2018-09-27T05:13:29.139Z,100.00
2018-09-27T05:15:56.147Z,100.00
2018-09-27T05:18:23.431Z,100.00
2018-09-27T05:20:50.490Z,100.00
2018-09-27T05:23:17.477Z,100.00
2018-09-27T05:25:44.480Z,100.00
2018-09-27T05:28:11.438Z,100.00
2018-09-27T05:30:38.488Z,100.00
2018-09-27T05:33:05.788Z,100.00
2018-09-27T05:35:32.763Z,100.00
2018-09-27T05:37:59.822Z,100.00
2018-09-27T05:40:26.972Z,100.00
2018-09-27T05:42:54.290Z,100.00
2018-09-27T05:45:21.369Z,100.00
2018-09-27T05:47:48.331Z,100.00
2018-09-27T05:50:15.560Z,100.00
2018-09-27T05:52:42.621Z,100.00
2018-09-27T05:55:09.599Z,100.00
2018-09-27T05:57:36.757Z,100.00
2018-09-27T06:00:03.815Z,100.00
2018-09-27T06:02:30.972Z,100.00
2018-09-27T06:04:58.053Z,100.00
2018-09-27T06:07:25.036Z,100.00
2018-09-27T06:09:52.008Z,100.00
2018-09-27T06:12:19.010Z,100.00
2018-09-27T06:14:46.004Z,100.00
2018-09-27T06:17:13.058Z,100.00
2018-09-27T06:19:40.216Z,100.00
2018-09-27T06:22:07.228Z,100.00
2018-09-27T06:24:34.229Z,100.00
2018-09-27T06:27:03.324Z,100.00
2018-09-27T06:29:30.430Z,100.00
2018-09-27T06:31:57.420Z,100.00
2018-09-27T06:34:24.856Z,100.00
2018-09-27T06:36:51.853Z,100.00
2018-09-27T06:39:18.994Z,100.00
2018-09-27T06:41:45.995Z,100.00
2018-09-27T06:44:12.970Z,100.00
2018-09-27T06:46:40.090Z,100.00
2018-09-27T06:49:08.283Z,100.00
2018-09-27T06:51:35.281Z,100.00
2018-09-27T06:54:02.431Z,100.00
2018-09-27T06:56:29.670Z,100.00
2018-09-27T06:58:56.687Z,100.00
2018-09-27T07:01:24.216Z,100.00
2018-09-27T07:03:51.808Z,100.00
2018-09-27T07:06:19.207Z,100.00
2018-09-27T07:08:46.571Z,100.00
2018-09-27T07:11:14.099Z,100.00
2018-09-27T07:13:41.264Z,100.00
2018-09-27T07:16:08.271Z,100.00
2018-09-27T07:18:35.553Z,100.00
2018-09-27T07:21:02.482Z,100.00
2018-09-27T07:23:29.812Z,100.00
2018-09-27T07:25:56.804Z,100.00
2018-09-27T07:28:24.597Z,100.00
2018-09-27T07:30:51.712Z,100.00
2018-09-27T07:33:18.790Z,100.00
2018-09-27T07:35:45.836Z,100.00
2018-09-27T07:38:13.588Z,100.00
2018-09-27T07:40:40.589Z,100.00
2018-09-27T07:43:07.669Z,100.00
2018-09-27T07:45:34.911Z,100.00
2018-09-27T07:48:01.990Z,100.00
2018-09-27T07:50:29.057Z,100.00
2018-09-27T07:52:56.412Z,100.00
2018-09-27T07:55:23.529Z,100.00
2018-09-27T07:57:51.168Z,100.00
2018-09-27T08:00:18.524Z,100.00
2018-09-27T08:02:45.626Z,100.00
2018-09-27T08:05:12.520Z,100.00
2018-09-27T08:07:39.611Z,100.00
2018-09-27T08:10:07.261Z,100.00
2018-09-27T08:12:34.337Z,99.41
2018-09-27T08:15:01.425Z,99.10
2018-09-27T08:17:29.964Z,99.88
2018-09-27T08:19:57.146Z,99.97
2018-09-27T08:22:24.798Z,99.19
2018-09-27T08:24:52.228Z,99.38
2018-09-27T08:27:19.275Z,98.71
2018-09-27T08:29:46.420Z,98.54
2018-09-27T08:32:13.788Z,98.86
2018-09-27T08:34:40.939Z,98.67
2018-09-27T08:37:08.000Z,99.26
2018-09-27T08:39:35.089Z,100.00
2018-09-27T08:42:02.553Z,99.75
2018-09-27T08:44:30.033Z,100.00
2018-09-27T08:46:57.035Z,99.79
2018-09-27T08:49:24.555Z,99.69
2018-09-27T08:51:51.925Z,99.11
2018-09-27T08:54:19.419Z,99.89
2018-09-27T08:56:46.495Z,100.00
2018-09-27T08:59:13.553Z,100.00
2018-09-27T09:01:40.662Z,100.00
2018-09-27T09:04:07.923Z,100.00
2018-09-27T09:06:35.163Z,99.58
2018-09-27T09:09:02.268Z,98.79
2018-09-27T09:11:29.259Z,99.47
2018-09-27T09:13:56.329Z,99.25
2018-09-27T09:16:23.813Z,98.56
2018-09-27T09:18:51.148Z,97.84
2018-09-27T09:21:18.211Z,96.66
2018-09-27T09:23:45.689Z,95.48
2018-09-27T09:26:13.005Z,95.77
2018-09-27T09:28:40.457Z,94.05
2018-09-27T09:31:07.576Z,93.68
2018-09-27T09:33:35.391Z,94.22
2018-09-27T09:36:03.005Z,93.09
2018-09-27T09:38:29.960Z,92.15
2018-09-27T09:40:57.379Z,91.29
2018-09-27T09:43:24.793Z,90.69
2018-09-27T09:45:52.000Z,89.12
2018-09-27T09:48:19.112Z,88.99
2018-09-27T09:50:46.147Z,87.39
2018-09-27T09:53:13.780Z,87.76
2018-09-27T09:55:41.183Z,87.54
2018-09-27T09:58:08.484Z,87.64
2018-09-27T10:00:37.130Z,86.14
2018-09-27T10:03:04.613Z,84.34
2018-09-27T10:05:31.881Z,84.69
2018-09-27T10:07:58.970Z,84.73
2018-09-27T10:10:26.008Z,84.92
2018-09-27T10:12:53.011Z,83.67
2018-09-27T10:15:20.393Z,82.99
2018-09-27T10:17:47.473Z,82.74
2018-09-27T10:20:14.455Z,82.22
2018-09-27T10:22:41.537Z,83.37
2018-09-27T10:25:08.631Z,82.91
2018-09-27T10:27:35.855Z,81.24
2018-09-27T10:30:03.223Z,81.19
2018-09-27T10:32:30.296Z,82.82
2018-09-27T10:34:57.544Z,82.97
2018-09-27T10:37:24.898Z,82.80
2018-09-27T10:39:51.895Z,82.96
2018-09-27T10:42:19.739Z,83.74
2018-09-27T10:44:46.912Z,83.55
2018-09-27T10:47:13.955Z,83.40
2018-09-27T10:49:41.083Z,84.12
2018-09-27T10:52:08.171Z,84.13
2018-09-27T10:54:35.204Z,83.79
2018-09-27T10:57:02.328Z,84.07
2018-09-27T10:59:29.375Z,83.97
2018-09-27T11:01:56.338Z,84.12
2018-09-27T11:04:23.492Z,84.11
2018-09-27T11:06:50.715Z,84.83
2018-09-27T11:09:17.789Z,84.66
2018-09-27T11:11:44.784Z,83.72
2018-09-27T11:14:11.801Z,84.64
2018-09-27T11:16:38.813Z,83.90
2018-09-27T11:19:06.052Z,84.73
2018-09-27T11:21:33.049Z,83.08
2018-09-27T11:24:00.566Z,82.68
2018-09-27T11:26:27.684Z,82.56
2018-09-27T11:30:04.298Z,82.88
2018-09-27T11:32:34.660Z,82.45
2018-09-27T11:35:01.661Z,82.70
2018-09-27T11:37:28.738Z,82.43
2018-09-27T11:39:55.963Z,82.10
2018-09-27T11:42:23.202Z,80.46
2018-09-27T11:44:50.080Z,79.93
2018-09-27T11:47:17.059Z,80.14
2018-09-27T11:49:44.200Z,81.06
2018-09-27T11:52:11.553Z,81.47
2018-09-27T11:54:38.651Z,80.91
2018-09-27T11:57:05.940Z,81.04
2018-09-27T11:59:33.013Z,80.69
2018-09-27T12:02:00.611Z,81.18
2018-09-27T12:04:28.046Z,81.02
2018-09-27T12:06:55.148Z,81.49
2018-09-27T12:09:22.224Z,80.64
2018-09-27T12:11:49.299Z,81.13
2018-09-27T12:14:16.452Z,81.41
2018-09-27T12:16:43.690Z,81.06
2018-09-27T12:19:11.615Z,81.53
2018-09-27T12:21:38.590Z,81.12
2018-09-27T12:24:05.511Z,81.05
2018-09-27T12:26:32.491Z,80.57
2018-09-27T12:28:59.472Z,80.77
2018-09-27T12:31:26.468Z,80.71
2018-09-27T12:33:54.948Z,80.79
2018-09-27T12:36:22.021Z,80.82
2018-09-27T12:38:49.007Z,80.09
2018-09-27T12:41:15.992Z,80.33
2018-09-27T12:43:42.992Z,80.46
2018-09-27T12:46:10.502Z,80.09
2018-09-27T12:48:37.337Z,80.10
2018-09-27T12:51:04.489Z,80.26
2018-09-27T12:53:31.668Z,79.66
2018-09-27T12:55:58.806Z,80.14
2018-09-27T12:58:25.812Z,79.82
2018-09-27T13:00:52.888Z,79.16
2018-09-27T13:03:19.898Z,79.08
2018-09-27T13:08:20.802Z,78.09
2018-09-27T13:10:48.166Z,78.86
2018-09-27T13:13:15.272Z,78.91
2018-09-27T13:15:42.211Z,78.40
2018-09-27T13:18:09.210Z,78.34
2018-09-27T13:20:36.509Z,77.75
2018-09-27T13:23:04.301Z,78.04
2018-09-27T13:25:31.318Z,77.73
2018-09-27T13:27:58.367Z,77.30
2018-09-27T13:30:25.376Z,77.75
2018-09-27T13:32:52.522Z,76.95
2018-09-27T13:35:19.599Z,77.78
2018-09-27T13:37:46.788Z,77.99
2018-09-27T13:40:13.796Z,77.39
2018-09-27T13:42:41.036Z,77.94
2018-09-27T13:45:08.215Z,77.67
2018-09-27T13:47:35.128Z,76.98
2018-09-27T13:50:02.220Z,77.45
2018-09-27T13:52:29.392Z,77.83
2018-09-27T13:54:56.474Z,77.17
2018-09-27T13:57:23.514Z,77.55
2018-09-27T13:59:50.628Z,76.96
2018-09-27T14:02:17.755Z,77.48
2018-09-27T14:04:44.767Z,76.82
2018-09-27T14:07:11.784Z,77.68
2018-09-27T14:09:38.878Z,76.63
2018-09-27T14:12:06.228Z,77.19
2018-09-27T14:14:33.994Z,77.51
2018-09-27T14:17:08.013Z,77.60
2018-09-27T14:19:36.118Z,77.80
2018-09-27T14:22:10.972Z,77.65
2018-09-27T14:24:41.562Z,78.03
2018-09-27T14:27:08.847Z,77.49
2018-09-27T14:29:40.018Z,77.62
2018-09-27T14:32:07.548Z,77.83
2018-09-27T14:34:34.944Z,78.63
2018-09-27T14:37:01.952Z,78.04
2018-09-27T14:39:29.431Z,78.45
2018-09-27T14:41:56.532Z,78.05
2018-09-27T14:44:24.124Z,77.97
2018-09-27T14:46:51.265Z,78.15
2018-09-27T14:49:18.357Z,78.17
2018-09-27T14:51:45.431Z,78.27
2018-09-27T14:54:12.720Z,79.02
2018-09-27T14:56:39.703Z,78.96
2018-09-27T14:59:06.913Z,78.38
2018-09-27T15:01:34.284Z,79.05
2018-09-27T15:04:01.447Z,79.30
2018-09-27T15:06:28.785Z,79.05
2018-09-27T15:08:55.793Z,79.34
2018-09-27T15:11:22.792Z,79.06
2018-09-27T15:13:49.791Z,79.33
2018-09-27T15:16:17.230Z,79.37
2018-09-27T15:18:44.264Z,79.30
2018-09-27T15:21:11.247Z,79.39
2018-09-27T15:23:38.314Z,80.20
2018-09-27T15:26:05.301Z,80.30
2018-09-27T15:28:32.459Z,80.20
2018-09-27T15:30:59.445Z,80.42
2018-09-27T15:33:26.437Z,80.88
2018-09-27T15:35:53.739Z,80.93
2018-09-27T15:38:20.791Z,80.98
2018-09-27T15:40:47.779Z,80.67
2018-09-27T15:43:14.775Z,81.24
2018-09-27T15:45:41.810Z,80.86
2018-09-27T15:48:08.956Z,81.37
2018-09-27T15:50:36.167Z,81.85
2018-09-27T15:53:03.424Z,81.60
2018-09-27T15:55:30.435Z,81.31
2018-09-27T15:57:57.552Z,81.62
2018-09-27T16:00:24.656Z,81.54
2018-09-27T16:02:51.776Z,81.80
2018-09-27T16:05:18.911Z,80.78
2018-09-27T16:07:46.060Z,81.38
2018-09-27T16:10:13.168Z,81.34
2018-09-27T16:12:40.696Z,81.47
2018-09-27T16:15:07.758Z,81.74
2018-09-27T16:17:35.181Z,81.31
2018-09-27T16:20:02.416Z,81.84
2018-09-27T16:22:29.596Z,81.42
2018-09-27T16:24:56.647Z,81.42
2018-09-27T16:27:23.647Z,81.80
2018-09-27T16:29:50.900Z,82.14
2018-09-27T16:32:18.156Z,81.71
2018-09-27T16:34:45.547Z,81.77
2018-09-27T16:37:12.532Z,81.50
2018-09-27T16:39:39.663Z,82.06
2018-09-27T16:42:06.891Z,82.52
2018-09-27T16:44:33.888Z,82.58
2018-09-27T16:47:00.944Z,82.02
2018-09-27T16:49:28.332Z,83.48
2018-09-27T16:54:29.405Z,85.79
2018-09-27T16:56:56.657Z,88.15
2018-09-27T16:59:30.786Z,88.87
2018-09-27T17:01:57.816Z,90.25
2018-09-27T17:04:24.979Z,90.92
2018-09-27T17:06:52.168Z,91.51
2018-09-27T17:09:19.169Z,91.56
2018-09-27T17:11:46.275Z,92.23
2018-09-27T17:14:13.633Z,92.35
2018-09-27T17:16:41.015Z,92.16
2018-09-27T17:19:07.940Z,92.28
2018-09-27T17:21:35.071Z,91.77
2018-09-27T17:24:02.303Z,92.45
2018-09-27T17:26:29.535Z,93.01
2018-09-27T17:28:56.540Z,93.17
2018-09-27T17:31:23.600Z,92.69
2018-09-27T17:33:50.671Z,92.48
2018-09-27T17:36:18.327Z,92.20
2018-09-27T17:38:45.456Z,93.08
2018-09-27T17:41:12.480Z,91.54
2018-09-27T17:43:39.660Z,92.69
2018-09-27T17:46:08.745Z,91.32
2018-09-27T17:48:36.027Z,90.94
2018-09-27T17:51:03.290Z,91.46
2018-09-27T17:53:30.942Z,90.86
2018-09-27T17:55:58.062Z,91.14
2018-09-27T17:58:25.424Z,90.91
2018-09-27T18:00:52.889Z,90.21
2018-09-27T18:03:20.081Z,90.07
2018-09-27T18:05:47.413Z,90.60
2018-09-27T18:08:14.659Z,88.21
2018-09-27T18:10:41.895Z,87.99
2018-09-27T18:13:09.367Z,88.89
2018-09-27T18:15:36.631Z,88.44
2018-09-27T18:18:04.083Z,88.98
2018-09-27T18:20:31.307Z,88.74
2018-09-27T18:22:58.641Z,88.85
2018-09-27T18:25:26.027Z,89.79
2018-09-27T18:27:53.625Z,89.99
2018-09-27T18:30:21.197Z,90.36
2018-09-27T18:32:48.409Z,90.32
2018-09-27T18:35:15.590Z,90.34
2018-09-27T18:37:42.780Z,91.05
2018-09-27T18:40:09.887Z,91.37
2018-09-27T18:42:37.151Z,91.41
2018-09-27T18:45:04.484Z,92.29
2018-09-27T18:47:31.728Z,92.43
2018-09-27T18:49:59.028Z,93.39
2018-09-27T18:52:26.268Z,93.04
2018-09-27T18:54:53.240Z,92.97
2018-09-27T18:57:20.239Z,93.68
2018-09-27T18:59:47.380Z,93.92
2018-09-27T19:02:14.448Z,94.94
2018-09-27T19:04:41.452Z,94.74
2018-09-27T19:07:08.652Z,95.10
2018-09-27T19:09:36.013Z,95.03
2018-09-27T19:12:03.228Z,95.38
2018-09-27T19:14:30.486Z,95.95
2018-09-27T19:16:57.808Z,96.15
2018-09-27T19:19:24.982Z,97.16
2018-09-27T19:21:52.207Z,97.71
2018-09-27T19:24:19.323Z,97.04
2018-09-27T19:26:46.585Z,97.77
2018-09-27T19:29:13.784Z,98.18
2018-09-27T19:31:40.961Z,99.10
2018-09-27T19:34:08.295Z,98.93
2018-09-27T19:36:35.688Z,99.54
2018-09-27T19:39:03.073Z,100.00
2018-09-27T19:41:30.279Z,100.00
2018-09-27T19:43:58.029Z,100.00
2018-09-27T19:46:25.603Z,100.00
2018-09-27T19:48:52.796Z,100.00
2018-09-27T19:51:22.363Z,100.00
2018-09-27T19:53:49.630Z,100.00
2018-09-27T19:56:17.500Z,100.00
2018-09-27T19:58:44.768Z,100.00
2018-09-27T20:01:12.204Z,100.00
2018-09-27T20:03:39.590Z,100.00
2018-09-27T20:06:08.805Z,100.00
2018-09-27T20:08:39.319Z,100.00
2018-09-27T20:11:06.352Z,100.00
2018-09-27T20:13:36.642Z,100.00
2018-09-27T20:16:03.755Z,100.00
2018-09-27T20:18:31.081Z,100.00
2018-09-27T20:20:58.307Z,100.00
2018-09-27T20:23:25.396Z,100.00
2018-09-27T20:25:52.672Z,100.00
2018-09-27T20:28:20.065Z,100.00
2018-09-27T20:30:47.945Z,100.00
2018-09-27T20:33:15.315Z,100.00
2018-09-27T20:35:42.942Z,100.00
2018-09-27T20:38:10.649Z,100.00
2018-09-27T20:40:40.735Z,100.00
2018-09-27T20:43:08.114Z,100.00
2018-09-27T20:45:35.441Z,100.00
2018-09-27T20:48:02.656Z,100.00
2018-09-27T20:50:29.831Z,100.00
2018-09-27T20:52:57.014Z,100.00
2018-09-27T20:55:25.343Z,100.00
2018-09-27T20:57:54.570Z,100.00
2018-09-27T21:00:23.408Z,100.00
2018-09-27T21:02:50.790Z,100.00
2018-09-27T21:05:21.575Z,100.00
2018-09-27T21:07:48.946Z,100.00
2018-09-27T21:10:16.809Z,100.00
2018-09-27T21:12:44.361Z,99.84
2018-09-27T21:15:12.145Z,98.93
2018-09-27T21:17:40.553Z,98.55
2018-09-27T21:20:07.525Z,97.43
2018-09-27T21:22:39.289Z,97.14
2018-09-27T21:25:16.950Z,96.48
2018-09-27T21:27:47.364Z,96.26
2018-09-27T21:30:16.685Z,96.70
2018-09-27T21:32:45.611Z,95.72
2018-09-27T21:35:17.896Z,94.95
2018-09-27T21:37:44.856Z,94.83
2018-09-27T21:40:14.251Z,94.57
2018-09-27T21:42:45.494Z,94.06
2018-09-27T21:45:15.785Z,93.60
2018-09-27T21:48:02.662Z,94.25
2018-09-27T21:50:36.684Z,94.06
2018-09-27T21:53:08.063Z,94.03
2018-09-27T21:55:38.211Z,93.78
2018-09-27T21:58:09.899Z,94.11
2018-09-27T22:00:43.500Z,94.59
2018-09-27T22:03:15.667Z,92.77
2018-09-27T22:06:03.566Z,93.51
2018-09-27T22:08:41.364Z,94.86
2018-09-27T22:11:19.223Z,96.07
2018-09-27T22:16:30.632Z,96.72
2018-09-27T22:19:09.092Z,97.34
2018-09-27T22:21:40.436Z,99.64
2018-09-27T22:24:15.408Z,100.00
2018-09-27T22:26:46.307Z,100.00
2018-09-27T22:29:17.635Z,100.00
2018-09-27T22:31:47.236Z,100.00
2018-09-27T22:34:21.893Z,100.00
2018-09-27T22:36:57.464Z,100.00
2018-09-27T22:39:27.947Z,100.00
2018-09-27T22:41:59.570Z,100.00
2018-09-27T22:44:31.181Z,100.00
2018-09-27T22:47:02.340Z,100.00
2018-09-27T22:49:39.437Z,100.00
2018-09-27T22:52:12.908Z,100.00
2018-09-27T22:54:50.782Z,100.00
2018-09-27T22:57:20.915Z,100.00
2018-09-27T22:59:48.575Z,100.00
2018-09-27T23:02:20.504Z,100.00
2018-09-27T23:04:52.825Z,100.00
2018-09-27T23:07:24.425Z,100.00
2018-09-27T23:09:54.903Z,100.00
2018-09-27T23:12:27.459Z,100.00
2018-09-27T23:14:59.524Z,100.00
2018-09-27T23:17:33.918Z,100.00
2018-09-27T23:20:04.171Z,100.00
2018-09-27T23:22:36.508Z,100.00
2018-09-27T23:25:07.914Z,100.00
2018-09-27T23:27:40.898Z,100.00
2018-09-27T23:30:13.310Z,100.00
2018-09-27T23:32:44.919Z,100.00
2018-09-27T23:35:19.370Z,100.00
2018-09-27T23:37:46.532Z,100.00
2018-09-27T23:40:13.506Z,100.00
2018-09-27T23:42:40.483Z,100.00
2018-09-27T23:45:07.682Z,100.00
2018-09-27T23:47:34.664Z,100.00
2018-09-27T23:50:01.729Z,100.00
2018-09-27T23:52:28.805Z,100.00
2018-09-27T23:54:56.063Z,100.00
2018-09-27T23:57:23.144Z,100.00
2018-09-27T23:59:50.151Z,100.00
